Dyess Air Force Base
KDYS : now visible

Airfield :











YOU CAN JOIN US ON...

 
LOGIN :

Register | Disclaimer

   EN    FR    IT 

 









Legend :    VFR   Marginal VFR   IFR   Intensive IFR   Very Intensive IFR
Visi :
Ceiling :
>= 8 km
>= 3000ft
5 to 8 km
1000 to 3000 ft
1500m to 5 km
500 to 1000 ft
800 to 1500m
200 to 500 ft
< 800m
< 200 ft
Symbols :   Thunderstorms  Fog  Heavy snow  Heavy precipitations  Wind > 20 kt






- Airport Elevation : 1789 ft


KDYS - Dyess Air Force Base

CURRENT METAR :
  • 282155Z AUTO 03011KT 10SM FEW150 SCT170 SCT190 M M RMK AO2 SLPNO RVRNO PWINO PNO FZRANO TSNO VISNO RWY16 CHINO RWY16 $

EXPIRED METARs :
  • 282055Z AUTO 01007KT 10SM FEW110 FEW140 SCT170 SCT190 M M RMK AO2 SLPNO RVRNO PWINO PNO FZRANO TSNO VISNO RWY16 CHINO RWY16 $
  • 281955Z AUTO 03011G17KT 10SM FEW140 SCT170 SCT220 M M RMK AO2 SLPNO RVRNO PWINO PNO FZRANO TSNO VISNO RWY16 CHINO RWY16 $
  • 281855Z COR 04012KT 10SM FEW110 FEW150 BKN170 BKN200 06/M09 A3038 RMK AO2A SLP283 RVRNO PWINO PNO FZRANO TSNO VISNO RWY16 CHINO RWY16 $ COR 1857
  • 281810Z 02013KT 10SM SCT140 BKN170 04/M08 A3039
  • 281755Z AUTO 01014KT 10SM SCT140 BKN170 BKN190 BKN210 M M RMK AO2 SLPNO 10051 20022 RVRNO FZRANO TSNO $

TAF TAF KDYS
Valid from the 28 at 17:00 until the 29 at 23:00 UTC


281700Z 2817/2923 01012G18KT 9999 BKN170 QNH3032INS
BECMG 2819/2820 03012KT 9999 BKN190 QNH3030INS
BECMG 2823/2900 VRB06KT 9999 BKN160 QNH3030INS
BECMG 2908/2909 VRB06KT 9999 OVC030 QNH3027INS
BECMG 2911/2912 VRB06KT 9000 -SHRA OVC020 QNH3025INS
BECMG 2914/2915 VRB06KT 9000 -SHRA OVC010 QNH3028INS
BECMG 2918/2919 15009KT 9999 NSW OVC020 QNH3016INS TX08/2821Z TN01/2913Z
KZFW FIR / North America



MET'MAP, your aeronautical weather chart ! - Copyright ORBIFLY December 2007 - Disclaimer

ORBIFLY MET'MAP TEAM :

Programming & Development : Alexandra Zaïnal
Original concept : Baudouin d'Aumeries
Technical & hardware support : Manuel Goepfert
Assistance : Marc-Olivier Méhu




SOURCES & CREDITS :

   NOAA       Earth
Advisory